sensor_id;sensor_type;location;lat;lon;timestamp;P1;durP1;ratioP1;P2;durP2;ratioP2
9443;SDS011;4760;42.148;24.754;2022-09-23T00:04:23;5.23;;;3.00;;
9443;SDS011;4760;42.148;24.754;2022-09-23T00:17:54;4.37;;;3.10;;
9443;SDS011;4760;42.148;24.754;2022-09-23T00:20:23;4.80;;;3.73;;
9443;SDS011;4760;42.148;24.754;2022-09-23T00:51:31;3.97;;;3.13;;
9443;SDS011;4760;42.148;24.754;2022-09-23T01:01:24;5.07;;;3.20;;
9443;SDS011;4760;42.148;24.754;2022-09-23T01:25:41;5.13;;;2.93;;
9443;SDS011;4760;42.148;24.754;2022-09-23T01:50:34;7.93;;;3.30;;
9443;SDS011;4760;42.148;24.754;2022-09-23T02:00:48;5.97;;;3.67;;
9443;SDS011;4760;42.148;24.754;2022-09-23T02:10:43;5.77;;;4.07;;
9443;SDS011;4760;42.148;24.754;2022-09-23T02:20:34;7.67;;;3.87;;
9443;SDS011;4760;42.148;24.754;2022-09-23T02:30:27;5.83;;;3.83;;
9443;SDS011;4760;42.148;24.754;2022-09-23T02:40:20;5.40;;;3.90;;
9443;SDS011;4760;42.148;24.754;2022-09-23T03:00:25;7.07;;;4.20;;
9443;SDS011;4760;42.148;24.754;2022-09-23T03:18:19;7.33;;;4.10;;
9443;SDS011;4760;42.148;24.754;2022-09-23T03:28:16;5.57;;;4.07;;
9443;SDS011;4760;42.148;24.754;2022-09-23T03:48:21;13.90;;;4.80;;
9443;SDS011;4760;42.148;24.754;2022-09-23T04:08:26;11.27;;;5.03;;
9443;SDS011;4760;42.148;24.754;2022-09-23T04:25:44;11.97;;;5.43;;
9443;SDS011;4760;42.148;24.754;2022-09-23T04:53:50;12.43;;;4.90;;
9443;SDS011;4760;42.148;24.754;2022-09-23T05:03:40;6.23;;;4.20;;
9443;SDS011;4760;42.148;24.754;2022-09-23T05:23:45;5.70;;;3.73;;
9443;SDS011;4760;42.148;24.754;2022-09-23T05:58:48;4.00;;;3.17;;
9443;SDS011;4760;42.148;24.754;2022-09-23T06:08:35;4.03;;;3.08;;
9443;SDS011;4760;42.148;24.754;2022-09-23T06:22:31;10.35;;;4.28;;
9443;SDS011;4760;42.148;24.754;2022-09-23T06:43:24;5.03;;;3.78;;
9443;SDS011;4760;42.148;24.754;2022-09-23T06:53:54;8.00;;;3.55;;
9443;SDS011;4760;42.148;24.754;2022-09-23T07:03:43;5.20;;;3.22;;
9443;SDS011;4760;42.148;24.754;2022-09-23T07:13:31;8.05;;;3.20;;
9443;SDS011;4760;42.148;24.754;2022-09-23T08:03:23;3.90;;;2.63;;
9443;SDS011;4760;42.148;24.754;2022-09-23T08:13:11;8.77;;;3.00;;
9443;SDS011;4760;42.148;24.754;2022-09-23T09:09:20;4.20;;;2.40;;
9443;SDS011;4760;42.148;24.754;2022-09-23T09:29:43;2.30;;;2.10;;
9443;SDS011;4760;42.148;24.754;2022-09-23T10:14:25;2.33;;;1.90;;
9443;SDS011;4760;42.148;24.754;2022-09-23T10:46:22;7.27;;;3.00;;
9443;SDS011;4760;42.148;24.754;2022-09-23T10:56:32;1.70;;;1.50;;
9443;SDS011;4760;42.148;24.754;2022-09-23T11:06:23;1.40;;;1.13;;
9443;SDS011;4760;42.148;24.754;2022-09-23T11:16:27;1.90;;;1.30;;
9443;SDS011;4760;42.148;24.754;2022-09-23T11:26:28;1.70;;;1.10;;
9443;SDS011;4760;42.148;24.754;2022-09-23T11:36:29;1.40;;;1.30;;
9443;SDS011;4760;42.148;24.754;2022-09-23T11:46:25;6.63;;;0.90;;
9443;SDS011;4760;42.148;24.754;2022-09-23T11:56:20;4.43;;;1.00;;
9443;SDS011;4760;42.148;24.754;2022-09-23T12:06:18;3.47;;;1.10;;
9443;SDS011;4760;42.148;24.754;2022-09-23T12:20:35;1.20;;;0.90;;
9443;SDS011;4760;42.148;24.754;2022-09-23T12:31:10;1.90;;;1.03;;
9443;SDS011;4760;42.148;24.754;2022-09-23T12:51:20;1.07;;;1.00;;
9443;SDS011;4760;42.148;24.754;2022-09-23T13:11:26;1.83;;;1.07;;
9443;SDS011;4760;42.148;24.754;2022-09-23T13:31:41;7.20;;;1.20;;
9443;SDS011;4760;42.148;24.754;2022-09-23T14:13:34;6.60;;;1.77;;
9443;SDS011;4760;42.148;24.754;2022-09-23T14:23:27;1.70;;;1.60;;
9443;SDS011;4760;42.148;24.754;2022-09-23T14:44:20;3.43;;;1.50;;
9443;SDS011;4760;42.148;24.754;2022-09-23T15:04:28;2.67;;;1.80;;
9443;SDS011;4760;42.148;24.754;2022-09-23T15:14:17;1.70;;;1.17;;
9443;SDS011;4760;42.148;24.754;2022-09-23T15:34:22;5.90;;;1.57;;
9443;SDS011;4760;42.148;24.754;2022-09-23T15:54:26;9.07;;;2.20;;
9443;SDS011;4760;42.148;24.754;2022-09-23T16:04:17;4.40;;;2.40;;
9443;SDS011;4760;42.148;24.754;2022-09-23T16:30:53;3.97;;;1.70;;
9443;SDS011;4760;42.148;24.754;2022-09-23T17:15:25;6.20;;;2.77;;
9443;SDS011;4760;42.148;24.754;2022-09-23T17:25:19;5.77;;;3.10;;
9443;SDS011;4760;42.148;24.754;2022-09-23T17:45:22;21.53;;;9.37;;
9443;SDS011;4760;42.148;24.754;2022-09-23T18:05:25;13.80;;;6.93;;
9443;SDS011;4760;42.148;24.754;2022-09-23T18:29:35;9.87;;;4.07;;
9443;SDS011;4760;42.148;24.754;2022-09-23T19:07:13;10.40;;;3.40;;
9443;SDS011;4760;42.148;24.754;2022-09-23T19:27:18;5.03;;;2.90;;
9443;SDS011;4760;42.148;24.754;2022-09-23T19:47:19;7.03;;;3.67;;
9443;SDS011;4760;42.148;24.754;2022-09-23T20:39:21;5.27;;;2.90;;
9443;SDS011;4760;42.148;24.754;2022-09-23T21:13:20;4.73;;;3.03;;
9443;SDS011;4760;42.148;24.754;2022-09-23T22:27:27;4.27;;;3.20;;
9443;SDS011;4760;42.148;24.754;2022-09-23T22:37:17;6.80;;;3.60;;
9443;SDS011;4760;42.148;24.754;2022-09-23T23:15:47;4.33;;;3.07;;
9443;SDS011;4760;42.148;24.754;2022-09-23T23:25:34;5.90;;;3.93;;
9443;SDS011;4760;42.148;24.754;2022-09-23T23:35:23;6.07;;;3.67;;
9443;SDS011;4760;42.148;24.754;2022-09-23T23:45:10;4.93;;;3.70;;
